createdAt,value
2023-03-27T00:04:57.257Z,46.20
2023-03-27T00:10:01.894Z,46.45
2023-03-27T00:15:08.999Z,46.25
2023-03-27T00:20:15.952Z,45.81
2023-03-27T00:25:22.977Z,46.38
2023-03-27T00:30:29.701Z,46.11
2023-03-27T00:35:33.849Z,46.48
2023-03-27T00:40:39.300Z,46.82
2023-03-27T00:45:47.248Z,47.23
2023-03-27T00:50:51.772Z,46.96
2023-03-27T00:55:58.858Z,46.93
2023-03-27T01:01:04.783Z,46.28
2023-03-27T01:06:11.188Z,46.14
2023-03-27T01:11:28.759Z,46.36
2023-03-27T01:16:42.156Z,46.76
2023-03-27T01:22:25.183Z,46.03
2023-03-27T01:27:47.386Z,44.35
2023-03-27T01:33:30.980Z,44.79
2023-03-27T01:39:01.309Z,44.72
2023-03-27T01:44:17.278Z,45.80
2023-03-27T01:49:26.403Z,45.44
2023-03-27T01:54:34.003Z,44.53
2023-03-27T01:59:44.764Z,44.90
2023-03-27T02:04:55.908Z,43.39
2023-03-27T02:10:05.015Z,43.36
2023-03-27T02:15:23.515Z,43.09
2023-03-27T02:20:30.124Z,43.20
2023-03-27T02:25:36.983Z,42.60
2023-03-27T02:31:06.930Z,42.73
2023-03-27T02:36:24.167Z,42.88
2023-03-27T02:41:37.385Z,42.84
2023-03-27T02:47:13.017Z,42.75
2023-03-27T02:52:21.927Z,43.02
2023-03-27T02:57:31.848Z,42.59
2023-03-27T03:03:02.356Z,42.52
2023-03-27T03:08:10.538Z,42.99
2023-03-27T03:13:15.050Z,42.38
2023-03-27T03:18:21.858Z,42.88
2023-03-27T03:23:26.484Z,42.63
2023-03-27T03:28:32.058Z,42.57
2023-03-27T03:33:38.572Z,42.78
2023-03-27T03:38:43.042Z,42.16
2023-03-27T03:43:52.104Z,42.57
2023-03-27T03:48:59.290Z,42.36
2023-03-27T03:54:05.495Z,42.93
2023-03-27T03:59:10.393Z,42.52
2023-03-27T04:04:19.913Z,41.85
2023-03-27T04:09:40.340Z,42.33
2023-03-27T04:14:47.286Z,42.83
2023-03-27T04:20:13.447Z,42.95
2023-03-27T04:25:19.441Z,43.48
2023-03-27T04:30:29.152Z,43.83
2023-03-27T04:35:45.019Z,44.16
2023-03-27T04:40:54.489Z,44.17
2023-03-27T04:46:00.995Z,44.31
2023-03-27T04:51:09.631Z,45.39
2023-03-27T04:56:16.586Z,45.31
2023-03-27T05:01:20.810Z,45.72
2023-03-27T05:06:44.741Z,45.59
2023-03-27T05:11:54.217Z,46.09
2023-03-27T05:17:00.952Z,45.79
2023-03-27T05:22:07.908Z,46.05
2023-03-27T05:27:15.446Z,46.12
2023-03-27T05:32:23.566Z,46.54
2023-03-27T05:37:38.611Z,46.74
2023-03-27T05:43:01.729Z,46.17
2023-03-27T05:48:08.541Z,46.25
2023-03-27T05:53:19.037Z,46.56
2023-03-27T05:58:44.331Z,45.99
2023-03-27T06:03:49.485Z,46.38
2023-03-27T06:09:00.398Z,46.07
2023-03-27T06:14:05.826Z,46.86
2023-03-27T06:19:26.575Z,47.23
2023-03-27T06:24:33.276Z,46.21
2023-03-27T06:29:41.235Z,45.08
2023-03-27T06:34:45.728Z,45.13
2023-03-27T06:40:20.220Z,45.03
2023-03-27T06:45:28.439Z,43.94
2023-03-27T06:50:52.008Z,43.54
2023-03-27T06:55:59.500Z,43.14
2023-03-27T07:01:16.731Z,42.49
2023-03-27T07:06:35.903Z,40.28
2023-03-27T07:11:47.624Z,40.90
2023-03-27T07:16:52.024Z,39.74
2023-03-27T07:21:57.410Z,39.78
2023-03-27T07:27:03.926Z,39.95
2023-03-27T07:32:11.140Z,40.17
2023-03-27T07:37:27.262Z,40.20
2023-03-27T07:42:59.335Z,37.95
2023-03-27T07:48:08.595Z,37.92
2023-03-27T07:53:32.902Z,36.19
2023-03-27T07:58:44.754Z,35.36
2023-03-27T08:03:54.986Z,34.30
2023-03-27T08:09:02.236Z,34.00
2023-03-27T08:14:10.132Z,33.11
2023-03-27T08:19:16.334Z,31.22
2023-03-27T08:24:25.401Z,29.25
2023-03-27T08:29:47.943Z,29.25
2023-03-27T08:34:52.292Z,29.17
2023-03-27T08:40:02.362Z,31.67
2023-03-27T08:45:18.809Z,31.49
2023-03-27T08:50:35.086Z,32.69
2023-03-27T08:55:51.571Z,33.55
2023-03-27T09:01:14.829Z,33.84
2023-03-27T09:06:28.011Z,34.51
2023-03-27T09:11:51.071Z,34.83
2023-03-27T09:17:14.279Z,35.46
2023-03-27T09:22:25.223Z,35.71
2023-03-27T09:27:50.784Z,35.47
2023-03-27T09:33:08.405Z,35.60
2023-03-27T09:38:27.629Z,35.69
2023-03-27T09:43:43.038Z,36.36
2023-03-27T09:48:55.746Z,37.71
2023-03-27T09:54:01.219Z,38.37
2023-03-27T09:59:32.524Z,39.66
2023-03-27T10:05:00.542Z,39.75
2023-03-27T10:10:12.889Z,39.29
2023-03-27T10:15:43.388Z,41.34
2023-03-27T10:21:01.851Z,41.14
2023-03-27T10:26:12.361Z,38.24
2023-03-27T10:31:32.061Z,38.54
2023-03-27T10:36:48.626Z,38.61
2023-03-27T10:41:57.594Z,38.88
2023-03-27T10:47:02.376Z,39.31
2023-03-27T10:52:18.204Z,38.83
2023-03-27T10:57:42.081Z,38.75
2023-03-27T11:02:52.834Z,40.18
2023-03-27T11:08:08.541Z,40.50
2023-03-27T11:13:19.136Z,40.13
2023-03-27T11:18:29.745Z,40.42
2023-03-27T11:23:44.657Z,42.92
2023-03-27T11:29:04.227Z,40.37
2023-03-27T11:34:29.051Z,41.66
2023-03-27T11:39:45.703Z,40.85
2023-03-27T11:44:53.172Z,39.52
2023-03-27T11:50:23.409Z,39.60
2023-03-27T11:55:36.442Z,39.45
2023-03-27T12:00:49.206Z,39.86
2023-03-27T12:06:15.733Z,40.98
2023-03-27T12:11:25.790Z,41.94
2023-03-27T12:16:59.318Z,44.17
2023-03-27T12:22:30.088Z,44.53
2023-03-27T12:27:59.708Z,46.26
2023-03-27T12:33:46.678Z,48.89
2023-03-27T12:38:54.378Z,53.13
2023-03-27T12:44:03.667Z,61.33
2023-03-27T12:49:47.645Z,66.12
2023-03-27T12:55:37.645Z,64.90
2023-03-27T13:01:01.123Z,66.62
2023-03-27T13:06:33.302Z,69.86
2023-03-27T13:17:46.972Z,74.29
2023-03-27T13:23:06.883Z,76.74
2023-03-27T13:34:17.446Z,81.10
2023-03-27T13:39:25.026Z,82.29
2023-03-27T13:45:00.134Z,82.40
2023-03-27T13:50:35.216Z,82.90
2023-03-27T13:55:58.082Z,81.91
2023-03-27T14:01:40.691Z,81.06
2023-03-27T14:06:59.982Z,79.34
2023-03-27T14:12:16.606Z,79.33
2023-03-27T14:17:48.156Z,79.14
2023-03-27T14:22:59.565Z,76.63
2023-03-27T14:28:29.833Z,74.93
2023-03-27T14:33:35.914Z,74.27
2023-03-27T14:38:40.070Z,73.83
2023-03-27T14:43:49.738Z,73.48
2023-03-27T14:48:58.197Z,72.50
2023-03-27T14:54:08.181Z,71.49
2023-03-27T14:59:29.708Z,71.50
2023-03-27T15:04:43.193Z,71.19
2023-03-27T15:10:03.593Z,73.43
2023-03-27T15:15:38.555Z,72.90
2023-03-27T15:20:44.766Z,72.27
2023-03-27T15:25:54.148Z,71.41
2023-03-27T15:31:00.876Z,71.47
2023-03-27T15:36:11.568Z,73.15
2023-03-27T15:41:39.209Z,74.71
2023-03-27T15:46:51.563Z,73.38
2023-03-27T15:51:56.130Z,73.34
2023-03-27T16:02:31.632Z,70.62
2023-03-27T16:07:48.316Z,70.93
2023-03-27T16:12:56.549Z,74.93
2023-03-27T16:18:04.397Z,76.00
2023-03-27T16:23:08.950Z,75.81
2023-03-27T16:28:17.718Z,75.04
2023-03-27T16:33:25.568Z,74.10
2023-03-27T16:38:31.763Z,74.30
2023-03-27T16:43:37.097Z,73.84
2023-03-27T16:48:42.716Z,73.02
2023-03-27T16:53:47.256Z,75.14
2023-03-27T16:58:51.867Z,75.71
2023-03-27T17:04:02.236Z,75.32
2023-03-27T17:09:06.483Z,76.17
2023-03-27T17:14:10.949Z,75.69
2023-03-27T17:19:17.226Z,77.73
2023-03-27T17:24:22.520Z,76.38
2023-03-27T17:29:26.734Z,76.21
2023-03-27T17:34:32.246Z,78.52
2023-03-27T17:39:36.306Z,79.28
2023-03-27T17:44:41.658Z,78.55
2023-03-27T17:49:47.171Z,77.71
2023-03-27T17:54:51.427Z,79.50
2023-03-27T17:59:57.155Z,80.52
2023-03-27T18:05:05.563Z,80.79
2023-03-27T18:10:14.437Z,81.12
2023-03-27T18:15:18.816Z,79.30
2023-03-27T18:20:25.057Z,78.72
2023-03-27T18:25:30.500Z,77.44
2023-03-27T18:30:34.912Z,79.14
2023-03-27T18:35:42.877Z,79.59
2023-03-27T18:40:49.136Z,79.96
2023-03-27T18:45:57.621Z,80.65
2023-03-27T18:51:06.277Z,78.94
2023-03-27T18:56:10.532Z,77.94
2023-03-27T19:01:16.083Z,76.45
2023-03-27T19:06:21.677Z,75.97
2023-03-27T19:11:26.091Z,75.42
2023-03-27T19:16:53.410Z,76.11
2023-03-27T19:22:20.487Z,72.60
2023-03-27T19:27:38.477Z,71.09
2023-03-27T19:32:43.719Z,70.35
2023-03-27T19:37:53.605Z,68.86
2023-03-27T19:43:01.405Z,71.65
2023-03-27T19:48:06.055Z,71.25
2023-03-27T19:53:11.677Z,69.72
2023-03-27T19:58:15.858Z,69.82
2023-03-27T20:03:20.967Z,68.87
2023-03-27T20:08:31.423Z,68.89
2023-03-27T20:13:49.073Z,69.98
2023-03-27T20:19:04.598Z,67.24
2023-03-27T20:24:11.619Z,67.63
2023-03-27T20:29:20.881Z,64.95
2023-03-27T20:34:25.336Z,63.34
2023-03-27T20:39:33.550Z,61.66
2023-03-27T20:44:38.020Z,61.90
2023-03-27T20:49:44.096Z,62.34
2023-03-27T20:54:49.854Z,61.62
2023-03-27T20:59:55.418Z,71.78
2023-03-27T21:04:59.644Z,74.14
2023-03-27T21:10:05.449Z,74.96
2023-03-27T21:15:11.372Z,74.60
2023-03-27T21:20:15.642Z,75.85
2023-03-27T21:25:21.972Z,74.07
2023-03-27T21:30:47.000Z,74.43
2023-03-27T21:35:52.324Z,74.32
2023-03-27T21:40:58.064Z,78.70
2023-03-27T21:46:03.962Z,79.13
2023-03-27T21:51:10.136Z,79.49
2023-03-27T21:56:15.751Z,77.87
2023-03-27T22:01:20.075Z,79.15
2023-03-27T22:06:28.937Z,82.11
2023-03-27T22:11:34.334Z,83.04
2023-03-27T22:16:38.411Z,82.49
2023-03-27T22:21:42.855Z,81.97
2023-03-27T22:26:49.028Z,85.01
2023-03-27T22:31:53.232Z,87.07
2023-03-27T22:36:57.381Z,87.48
2023-03-27T22:42:02.938Z,87.98
2023-03-27T22:47:07.109Z,88.37
2023-03-27T22:52:11.250Z,88.57
2023-03-27T22:57:16.896Z,88.60
2023-03-27T23:02:22.088Z,87.88
2023-03-27T23:07:26.533Z,88.50
2023-03-27T23:12:32.026Z,89.16
2023-03-27T23:17:36.542Z,88.66
2023-03-27T23:22:40.637Z,88.76
2023-03-27T23:27:46.481Z,89.02
2023-03-27T23:32:50.546Z,89.18
2023-03-27T23:37:54.679Z,88.97
2023-03-27T23:43:00.099Z,89.11
2023-03-27T23:48:04.155Z,90.17
2023-03-27T23:53:08.346Z,91.80
2023-03-27T23:58:13.859Z,90.46
